Delhi, Texas
Current Conditions -  °F | °C
As of 8:35 AM on Friday 28 Nov 2014 (Local Time) from K3T5 Reporting Station
Clear Clear  
Wind Chill: 54°   Ceiling: Unl
Heat Index: 54°   Visibility: 10mi
Dew Point: 48°   Wind: 3mph
Humidity: 79%   Direction: 150°SSE
Pressure: 30.31"   Gusts: NA
Location:  29.8725°N, 97.3223°W
Report Text: K3T5 281435Z AUTO 15003KT 10SM CLR 12/09 A3031 RMK AO2 T01240088
Loading
Personal Weather Stations






























Interactive Weather Map New forecast layout! Learn more

10-Day Weather Forecast

Advertisements
Track Severe Weather on mobile